KMXF/MXF METAR and TAF weather

Enter ICAO airport designator
Station Type Date Time Source
KMXF METAR 2020/10/20 16:56 UTC NOAA

KMXF 201656Z 06009KT 9SM OVC036 26/18 A3016 RMK AO2A SLP215 $


Station Type Date Time Source
KMXF Decoded METAR 2020/10/20 16:56 UTC NOAA

Maxwell Air Force Base / Montgomery, AL, United States (KMXF) 32-23N 086-22W
Oct 20, 2020 - 12:56 PM EDT / 2020.10.20 1656 UTC
Wind: from the ENE (060 degrees) at 10 MPH (9 KT):0
Visibility: 9 mile(s):0
Sky conditions: overcast
Temperature: 78 F (26 C)
Dew Point: 64 F (18 C)
Relative Humidity: 61%
Pressure (altimeter): 30.16 in. Hg (1021 hPa)
ob: KMXF 201656Z 06009KT 9SM OVC036 26/18 A3016 RMK AO2A SLP215
cycle: 17

Station Type Date Time Source
KMXF TAF 2020/10/20 11:09 UTC NOAA

TAF TAF KMXF 201100Z 2011/2117 09009KT 9999 FEW250 QNH3013INS
BECMG 2014/2015 08006KT 9999 BKN030 BKN250 QNH3006INS
BECMG 2102/2103 VRB05KT 9999 SCT250 QNH3010INS
BECMG 2109/2110 07006KT 8000 BR BKN010 OVC025 QNH3011INS
BECMG 2115/2116 08009KT 9999 NSW SCT025 QNH3017INS TX29/2019Z TN16/2012Z

Example: see airport list